createdAt,value
2024-01-05T00:00:49.002Z,87716.00
2024-01-05T00:01:48.905Z,87713.00
2024-01-05T00:02:48.982Z,87716.00
2024-01-05T00:03:48.946Z,87709.00
2024-01-05T00:04:48.881Z,87712.00
2024-01-05T00:05:48.937Z,87723.00
2024-01-05T00:06:49.008Z,87716.00
2024-01-05T00:07:48.828Z,87712.00
2024-01-05T00:08:48.831Z,87706.00
2024-01-05T00:09:48.803Z,87702.00
2024-01-05T00:10:48.787Z,87699.00
2024-01-05T00:11:48.810Z,87705.00
2024-01-05T00:12:48.782Z,87701.00
2024-01-05T00:13:48.758Z,87696.00
2024-01-05T00:14:48.776Z,87697.00
2024-01-05T00:15:48.763Z,87697.00
2024-01-05T00:16:48.699Z,87700.00
2024-01-05T00:17:48.842Z,87691.00
2024-01-05T00:18:48.893Z,87693.00
2024-01-05T00:19:48.731Z,87691.00
2024-01-05T00:20:48.723Z,87692.00
2024-01-05T00:21:48.657Z,87690.00
2024-01-05T00:22:48.627Z,87685.00
2024-01-05T00:23:48.701Z,87696.00
2024-01-05T00:24:48.609Z,87691.00
2024-01-05T00:25:48.613Z,87691.00
2024-01-05T00:26:48.598Z,87696.00
2024-01-05T00:27:48.595Z,87691.00
2024-01-05T00:28:48.572Z,87698.00
2024-01-05T00:29:48.563Z,87697.00
2024-01-05T00:30:48.655Z,87697.00
2024-01-05T00:31:48.567Z,87694.00
2024-01-05T00:32:48.747Z,87697.00
2024-01-05T00:33:48.683Z,87695.00
2024-01-05T00:34:48.695Z,87695.00
2024-01-05T00:35:48.647Z,87698.00
2024-01-05T00:36:48.647Z,87702.00
2024-01-05T00:37:48.720Z,87698.00
2024-01-05T00:38:49.257Z,87696.00
2024-01-05T00:39:48.822Z,87692.00
2024-01-05T00:40:48.815Z,87692.00
2024-01-05T00:41:49.044Z,87687.00
2024-01-05T00:42:48.790Z,87694.00
2024-01-05T00:43:48.792Z,87696.00
2024-01-05T00:44:48.819Z,87694.00
2024-01-05T00:45:48.773Z,87690.00
2024-01-05T00:46:48.741Z,87692.00
2024-01-05T00:47:48.980Z,87690.00
2024-01-05T00:48:48.847Z,87686.00
2024-01-05T00:49:48.838Z,87692.00
2024-01-05T00:50:48.735Z,87684.00
2024-01-05T00:51:48.715Z,87685.00
2024-01-05T00:52:48.712Z,87682.00
2024-01-05T00:53:48.843Z,87681.00
2024-01-05T00:54:48.686Z,87681.00
2024-01-05T00:55:48.701Z,87681.00
2024-01-05T00:56:48.758Z,87678.00
2024-01-05T00:57:48.654Z,87681.00
2024-01-05T00:58:48.645Z,87677.00
2024-01-05T00:59:48.760Z,87679.00
2024-01-05T01:00:48.703Z,87676.00
2024-01-05T01:01:48.613Z,87680.00
2024-01-05T01:02:48.617Z,87678.00
2024-01-05T01:03:48.675Z,87672.00
2024-01-05T01:04:48.666Z,87678.00
2024-01-05T01:05:48.590Z,87670.00
2024-01-05T01:06:48.603Z,87672.00
2024-01-05T01:07:48.532Z,87664.00
2024-01-05T01:08:48.522Z,87661.00
2024-01-05T01:09:48.513Z,87661.00
2024-01-05T01:10:48.527Z,87659.00
2024-01-05T01:11:48.492Z,87662.00
2024-01-05T01:12:48.495Z,87657.00
2024-01-05T01:13:48.469Z,87659.00
2024-01-05T01:14:48.443Z,87657.00
2024-01-05T01:15:48.450Z,87655.00
2024-01-05T01:16:48.418Z,87657.00
2024-01-05T01:17:48.486Z,87657.00
2024-01-05T01:18:48.575Z,87657.00
2024-01-05T01:19:48.416Z,87655.00
2024-01-05T01:20:48.382Z,87653.00
2024-01-05T01:21:48.355Z,87656.00
2024-01-05T01:22:48.349Z,87658.00
2024-01-05T01:23:48.336Z,87653.00
2024-01-05T01:24:48.313Z,87655.00
2024-01-05T01:25:48.309Z,87659.00
2024-01-05T01:26:48.276Z,87660.00
2024-01-05T01:27:48.293Z,87661.00
2024-01-05T01:28:48.232Z,87663.00
2024-01-05T01:29:48.238Z,87663.00
2024-01-05T01:30:48.324Z,87659.00
2024-01-05T01:31:48.216Z,87656.00
2024-01-05T01:32:48.214Z,87660.00
2024-01-05T01:33:48.291Z,87649.00
2024-01-05T01:34:48.226Z,87654.00
2024-01-05T01:35:48.143Z,87652.00
2024-01-05T01:36:48.167Z,87656.00
2024-01-05T01:37:48.110Z,87653.00
2024-01-05T01:38:48.108Z,87646.00
2024-01-05T01:39:48.101Z,87632.00
2024-01-05T01:40:48.079Z,87630.00
2024-01-05T01:41:48.049Z,87638.00
2024-01-05T01:42:48.101Z,87637.00
2024-01-05T01:43:52.074Z,87639.00
2024-01-05T01:44:49.035Z,87640.00
2024-01-05T01:45:48.027Z,87637.00
2024-01-05T01:46:48.004Z,87641.00
2024-01-05T01:47:48.077Z,87636.00
2024-01-05T01:48:48.196Z,87643.00
2024-01-05T01:49:48.055Z,87640.00
2024-01-05T01:50:47.955Z,87647.00
2024-01-05T01:51:47.909Z,87646.00
2024-01-05T01:52:47.892Z,87648.00
2024-01-05T01:53:47.948Z,87645.00
2024-01-05T01:54:47.863Z,87644.00
2024-01-05T01:55:47.879Z,87636.00
2024-01-05T01:56:47.844Z,87638.00
2024-01-05T01:57:47.844Z,87639.00
2024-01-05T01:58:47.834Z,87642.00
2024-01-05T01:59:47.801Z,87643.00
2024-01-05T02:00:47.887Z,87648.00
2024-01-05T02:01:47.778Z,87646.00
2024-01-05T02:02:47.757Z,87648.00
2024-01-05T02:03:47.806Z,87649.00
2024-01-05T02:04:47.822Z,87649.00
2024-01-05T02:05:47.706Z,87647.00
2024-01-05T02:06:47.691Z,87646.00
2024-01-05T02:07:47.668Z,87639.00
2024-01-05T02:08:47.669Z,87631.00
2024-01-05T02:09:47.674Z,87628.00
2024-01-05T02:10:47.688Z,87629.00
2024-01-05T02:11:47.652Z,87637.00
2024-01-05T02:12:47.648Z,87636.00
2024-01-05T02:13:47.602Z,87628.00
2024-01-05T02:14:47.606Z,87630.00
2024-01-05T02:15:47.586Z,87636.00
2024-01-05T02:16:47.563Z,87635.00
2024-01-05T02:17:47.735Z,87622.00
2024-01-05T02:18:47.588Z,87616.00
2024-01-05T02:19:47.670Z,87619.00
2024-01-05T02:20:47.514Z,87625.00
2024-01-05T02:21:47.482Z,87614.00
2024-01-05T02:22:47.490Z,87614.00
2024-01-05T02:23:47.463Z,87608.00
2024-01-05T02:24:47.465Z,87612.00
2024-01-05T02:25:47.440Z,87601.00
2024-01-05T02:26:47.906Z,87605.00
2024-01-05T02:27:47.396Z,87592.00
2024-01-05T02:28:47.387Z,87597.00
2024-01-05T02:29:47.376Z,87595.00
2024-01-05T02:30:47.447Z,87592.00
2024-01-05T02:31:47.358Z,87591.00
2024-01-05T02:32:47.338Z,87592.00
2024-01-05T02:33:47.476Z,87597.00
2024-01-05T02:34:47.332Z,87599.00
2024-01-05T02:35:47.291Z,87598.00
2024-01-05T02:36:47.444Z,87595.00
2024-01-05T02:37:47.245Z,87592.00
2024-01-05T02:38:47.250Z,87588.00
2024-01-05T02:39:47.223Z,87581.00
2024-01-05T02:40:47.242Z,87578.00
2024-01-05T02:41:47.199Z,87582.00
2024-01-05T02:42:47.185Z,87579.00
2024-01-05T02:43:47.170Z,87579.00
2024-01-05T02:44:47.152Z,87573.00
2024-01-05T02:45:47.392Z,87579.00
2024-01-05T02:46:47.143Z,87570.00
2024-01-05T02:47:47.217Z,87574.00
2024-01-05T02:48:47.319Z,87580.00
2024-01-05T02:49:47.152Z,87574.00
2024-01-05T02:50:47.086Z,87573.00
2024-01-05T02:51:47.085Z,87568.00
2024-01-05T02:52:47.049Z,87556.00
2024-01-05T02:53:47.040Z,87548.00
2024-01-05T02:54:47.022Z,87529.00
2024-01-05T02:55:47.038Z,87518.00
2024-01-05T02:56:46.993Z,87518.00
2024-01-05T02:57:46.992Z,87514.00
2024-01-05T02:58:46.975Z,87505.00
2024-01-05T02:59:46.962Z,87500.00
2024-01-05T03:00:47.169Z,87499.00
2024-01-05T03:01:46.919Z,87498.00
2024-01-05T03:02:46.912Z,87501.00
2024-01-05T03:03:50.537Z,87503.00
2024-01-05T03:04:46.934Z,87511.00
2024-01-05T03:05:46.943Z,87514.00
2024-01-05T03:06:47.386Z,87516.00
2024-01-05T03:07:46.830Z,87514.00
2024-01-05T03:08:46.820Z,87519.00
2024-01-05T03:09:46.813Z,87519.00
2024-01-05T03:10:46.805Z,87517.00
2024-01-05T03:11:46.788Z,87513.00
2024-01-05T03:12:46.785Z,87518.00
2024-01-05T03:13:46.783Z,87521.00
2024-01-05T03:14:46.746Z,87514.00
2024-01-05T03:15:46.728Z,87517.00
2024-01-05T03:16:46.902Z,87512.00
2024-01-05T03:17:46.719Z,87507.00
2024-01-05T03:18:46.825Z,87513.00
2024-01-05T03:19:46.752Z,87511.00
2024-01-05T03:20:46.668Z,87511.00
2024-01-05T03:21:46.641Z,87510.00
2024-01-05T03:22:46.656Z,87511.00
2024-01-05T03:23:46.624Z,87513.00
2024-01-05T03:24:46.615Z,87502.00
2024-01-05T03:25:46.595Z,87499.00
2024-01-05T03:26:46.588Z,87489.00
2024-01-05T03:27:46.582Z,87492.00
2024-01-05T03:28:46.557Z,87491.00
2024-01-05T03:29:46.563Z,87496.00
2024-01-05T03:30:46.681Z,87497.00
2024-01-05T03:31:46.539Z,87500.00
2024-01-05T03:32:46.653Z,87501.00
2024-01-05T03:33:46.724Z,87499.00
2024-01-05T03:34:46.541Z,87501.00
2024-01-05T03:35:46.501Z,87503.00
2024-01-05T03:36:46.914Z,87504.00
2024-01-05T03:37:46.489Z,87508.00
2024-01-05T03:38:46.486Z,87497.00
2024-01-05T03:39:46.515Z,87495.00
2024-01-05T03:40:46.511Z,87488.00
2024-01-05T03:41:46.528Z,87490.00
2024-01-05T03:42:46.592Z,87491.00
2024-01-05T03:43:46.642Z,87482.00
2024-01-05T03:44:46.698Z,87488.00
2024-01-05T03:45:46.970Z,87494.00
2024-01-05T03:46:46.795Z,87492.00
2024-01-05T03:47:46.906Z,87483.00
2024-01-05T03:48:47.005Z,87480.00
2024-01-05T03:49:47.050Z,87485.00
2024-01-05T03:50:47.182Z,87479.00
2024-01-05T03:51:47.145Z,87477.00
2024-01-05T03:52:47.132Z,87475.00
2024-01-05T03:53:47.147Z,87473.00
2024-01-05T03:54:47.175Z,87470.00
2024-01-05T03:55:47.155Z,87471.00
2024-01-05T03:56:47.106Z,87466.00
2024-01-05T03:57:47.108Z,87470.00
2024-01-05T03:58:47.158Z,87471.00
2024-01-05T03:59:47.119Z,87464.00
2024-01-05T04:00:47.206Z,87477.00
2024-01-05T04:01:47.164Z,87476.00
2024-01-05T04:02:47.195Z,87481.00
2024-01-05T04:03:47.224Z,87481.00
2024-01-05T04:04:47.202Z,87476.00
2024-01-05T04:05:47.169Z,87480.00
2024-01-05T04:06:47.583Z,87479.00
2024-01-05T04:07:47.121Z,87472.00
2024-01-05T04:08:47.166Z,87473.00
2024-01-05T04:09:47.226Z,87464.00
2024-01-05T04:10:47.271Z,87465.00
2024-01-05T04:11:47.286Z,87466.00
2024-01-05T04:12:47.301Z,87467.00
2024-01-05T04:13:47.309Z,87463.00
2024-01-05T04:14:47.316Z,87466.00
2024-01-05T04:15:47.333Z,87458.00
2024-01-05T04:16:47.534Z,87460.00
2024-01-05T04:17:47.318Z,87461.00
2024-01-05T04:18:47.457Z,87455.00
2024-01-05T04:19:47.331Z,87453.00
2024-01-05T04:20:47.323Z,87453.00
2024-01-05T04:21:47.315Z,87449.00
2024-01-05T04:22:47.306Z,87454.00
2024-01-05T04:23:47.298Z,87450.00
2024-01-05T04:24:47.312Z,87448.00
2024-01-05T04:25:47.317Z,87450.00
2024-01-05T04:26:47.311Z,87444.00
2024-01-05T04:27:47.324Z,87443.00
2024-01-05T04:28:47.309Z,87434.00
2024-01-05T04:29:47.310Z,87430.00
2024-01-05T04:30:47.427Z,87428.00
2024-01-05T04:31:47.379Z,87428.00
2024-01-05T04:32:47.380Z,87418.00
2024-01-05T04:33:47.519Z,87419.00
2024-01-05T04:34:47.368Z,87417.00
2024-01-05T04:35:47.321Z,87419.00
2024-01-05T04:36:47.683Z,87418.00
2024-01-05T04:37:47.328Z,87426.00
2024-01-05T04:38:54.672Z,87423.00
2024-01-05T04:39:54.601Z,87411.00
2024-01-05T04:40:54.620Z,87410.00
2024-01-05T04:41:54.643Z,87423.00
2024-01-05T04:42:54.637Z,87425.00
2024-01-05T04:43:54.641Z,87435.00
2024-01-05T04:44:54.685Z,87426.00
2024-01-05T04:45:54.680Z,87422.00
2024-01-05T04:46:54.673Z,87421.00
2024-01-05T04:47:54.760Z,87424.00
2024-01-05T04:48:54.811Z,87413.00
2024-01-05T04:49:54.720Z,87425.00
2024-01-05T04:50:54.755Z,87435.00
2024-01-05T04:51:54.739Z,87450.00
2024-01-05T04:52:54.705Z,87438.00
2024-01-05T04:53:54.728Z,87440.00
2024-01-05T04:54:54.728Z,87438.00
2024-01-05T04:55:54.723Z,87439.00
2024-01-05T04:56:54.758Z,87441.00
2024-01-05T04:57:54.745Z,87446.00
2024-01-05T04:58:54.733Z,87446.00
2024-01-05T04:59:54.786Z,87452.00
2024-01-05T05:00:55.531Z,87449.00
2024-01-05T05:01:54.751Z,87451.00
2024-01-05T05:02:54.944Z,87442.00
2024-01-05T05:03:54.816Z,87444.00
2024-01-05T05:04:54.788Z,87440.00
2024-01-05T05:05:55.293Z,87438.00
2024-01-05T05:06:54.773Z,87437.00
2024-01-05T05:07:54.798Z,87433.00
2024-01-05T05:08:54.832Z,87438.00
2024-01-05T05:09:54.791Z,87440.00
2024-01-05T05:10:55.165Z,87451.00
2024-01-05T05:11:54.849Z,87459.00
2024-01-05T05:12:54.816Z,87452.00
2024-01-05T05:13:54.809Z,87455.00
2024-01-05T05:14:54.854Z,87453.00
2024-01-05T05:15:54.825Z,87453.00
2024-01-05T05:16:54.838Z,87447.00
2024-01-05T05:17:55.283Z,87447.00
2024-01-05T05:18:54.993Z,87452.00
2024-01-05T05:19:54.841Z,87454.00
2024-01-05T05:20:54.954Z,87454.00
2024-01-05T05:21:54.880Z,87458.00
2024-01-05T05:22:54.871Z,87452.00
2024-01-05T05:23:54.914Z,87456.00
2024-01-05T05:24:54.902Z,87454.00
2024-01-05T05:25:54.957Z,87460.00
2024-01-05T05:26:54.989Z,87458.00
2024-01-05T05:27:55.010Z,87453.00
2024-01-05T05:28:55.040Z,87457.00
2024-01-05T05:29:55.089Z,87458.00
2024-01-05T05:30:55.270Z,87450.00
2024-01-05T05:31:55.110Z,87447.00
2024-01-05T05:32:55.317Z,87451.00
2024-01-05T05:33:55.297Z,87450.00
2024-01-05T05:34:55.219Z,87446.00
2024-01-05T05:35:55.233Z,87445.00
2024-01-05T05:36:55.225Z,87441.00
2024-01-05T05:37:55.257Z,87442.00
2024-01-05T05:38:55.340Z,87437.00
2024-01-05T05:39:55.318Z,87433.00
2024-01-05T05:40:55.372Z,87429.00
2024-01-05T05:41:55.419Z,87430.00
2024-01-05T05:42:55.383Z,87426.00
2024-01-05T05:43:55.409Z,87428.00
2024-01-05T05:44:55.416Z,87427.00
2024-01-05T05:45:55.651Z,87426.00
2024-01-05T05:46:55.403Z,87433.00
2024-01-05T05:47:55.493Z,87430.00
2024-01-05T05:48:55.613Z,87435.00
2024-01-05T05:49:55.453Z,87431.00
2024-01-05T05:50:55.772Z,87427.00
2024-01-05T05:51:55.465Z,87422.00
2024-01-05T05:52:55.473Z,87426.00
2024-01-05T05:53:55.598Z,87428.00
2024-01-05T05:54:55.487Z,87427.00
2024-01-05T05:55:55.512Z,87426.00
2024-01-05T05:56:55.560Z,87428.00
2024-01-05T05:57:55.526Z,87432.00
2024-01-05T05:58:55.536Z,87430.00
2024-01-05T05:59:55.582Z,87434.00
2024-01-05T06:00:55.979Z,87432.00
2024-01-05T06:01:55.685Z,87429.00
2024-01-05T06:02:55.604Z,87437.00
2024-01-05T06:03:55.681Z,87442.00
2024-01-05T06:04:55.620Z,87442.00
2024-01-05T06:05:56.163Z,87444.00
2024-01-05T06:06:55.705Z,87440.00
2024-01-05T06:07:55.643Z,87435.00
2024-01-05T06:08:55.674Z,87435.00
2024-01-05T06:09:55.667Z,87437.00
2024-01-05T06:10:56.555Z,87439.00
2024-01-05T06:11:55.755Z,87434.00
2024-01-05T06:12:55.686Z,87433.00
2024-01-05T06:13:55.709Z,87425.00
2024-01-05T06:14:55.742Z,87416.00
2024-01-05T06:15:55.743Z,87413.00
2024-01-05T06:16:55.734Z,87417.00
2024-01-05T06:17:55.895Z,87418.00
2024-01-05T06:18:55.904Z,87422.00
2024-01-05T06:19:55.802Z,87414.00
2024-01-05T06:20:55.826Z,87417.00
2024-01-05T06:21:55.788Z,87415.00
2024-01-05T06:22:55.835Z,87417.00
2024-01-05T06:23:55.830Z,87427.00
2024-01-05T06:24:55.812Z,87425.00
2024-01-05T06:25:55.806Z,87411.00
2024-01-05T06:26:55.840Z,87424.00
2024-01-05T06:27:55.866Z,87424.00
2024-01-05T06:28:55.844Z,87424.00
2024-01-05T06:29:55.860Z,87425.00
2024-01-05T06:30:56.009Z,87426.00
2024-01-05T06:31:55.864Z,87425.00
2024-01-05T06:32:56.001Z,87423.00
2024-01-05T06:33:56.845Z,87426.00
2024-01-05T06:34:55.970Z,87425.00
2024-01-05T06:35:56.036Z,87436.00
2024-01-05T06:36:56.052Z,87441.00
2024-01-05T06:37:56.117Z,87432.00
2024-01-05T06:38:56.230Z,87434.00
2024-01-05T06:39:56.221Z,87437.00
2024-01-05T06:40:56.239Z,87445.00
2024-01-05T06:41:56.286Z,87440.00
2024-01-05T06:42:56.263Z,87447.00
2024-01-05T06:43:56.270Z,87439.00
2024-01-05T06:44:56.322Z,87445.00
2024-01-05T06:45:56.308Z,87438.00
2024-01-05T06:46:56.305Z,87434.00
2024-01-05T06:47:56.461Z,87438.00
2024-01-05T06:48:56.418Z,87434.00
2024-01-05T06:49:56.577Z,87435.00
2024-01-05T06:50:56.401Z,87442.00
2024-01-05T06:51:56.402Z,87435.00
2024-01-05T06:52:56.388Z,87436.00
2024-01-05T06:53:56.435Z,87436.00
2024-01-05T06:54:56.414Z,87432.00
2024-01-05T06:55:56.418Z,87421.00
2024-01-05T06:56:56.439Z,87417.00
2024-01-05T06:57:56.518Z,87415.00
2024-01-05T06:58:56.579Z,87423.00
2024-01-05T06:59:56.637Z,87423.00
2024-01-05T07:00:56.765Z,87432.00
2024-01-05T07:01:56.737Z,87418.00
2024-01-05T07:02:56.866Z,87414.00
2024-01-05T07:03:56.922Z,87415.00
2024-01-05T07:04:56.959Z,87419.00
2024-01-05T07:05:57.080Z,87418.00
2024-01-05T07:06:57.053Z,87419.00
2024-01-05T07:07:57.122Z,87418.00
2024-01-05T07:08:57.213Z,87416.00
2024-01-05T07:09:57.254Z,87416.00
2024-01-05T07:10:57.342Z,87411.00
2024-01-05T07:11:57.548Z,87409.00
2024-01-05T07:12:57.443Z,87401.00
2024-01-05T07:13:57.513Z,87411.00
2024-01-05T07:14:57.578Z,87415.00
2024-01-05T07:15:57.550Z,87415.00
2024-01-05T07:16:57.550Z,87416.00
2024-01-05T07:17:57.696Z,87413.00
2024-01-05T07:18:57.687Z,87425.00
2024-01-05T07:19:57.617Z,87412.00
2024-01-05T07:20:57.669Z,87416.00
2024-01-05T07:21:57.640Z,87413.00
2024-01-05T07:22:57.645Z,87415.00
2024-01-05T07:23:57.659Z,87419.00
2024-01-05T07:24:57.664Z,87414.00
2024-01-05T07:25:57.710Z,87420.00
2024-01-05T07:26:57.727Z,87422.00
2024-01-05T07:27:57.743Z,87423.00
2024-01-05T07:28:57.740Z,87422.00
2024-01-05T07:29:57.764Z,87428.00
2024-01-05T07:30:57.926Z,87418.00
2024-01-05T07:31:57.781Z,87425.00
2024-01-05T07:32:57.913Z,87417.00
2024-01-05T07:33:57.933Z,87415.00
2024-01-05T07:34:57.829Z,87418.00
2024-01-05T07:35:57.951Z,87413.00
2024-01-05T07:36:57.962Z,87411.00
2024-01-05T07:37:57.926Z,87415.00
2024-01-05T07:38:57.972Z,87417.00
2024-01-05T07:39:57.959Z,87403.00
2024-01-05T07:40:57.978Z,87414.00
2024-01-05T07:41:57.993Z,87419.00
2024-01-05T07:42:58.053Z,87427.00
2024-01-05T07:43:57.993Z,87418.00
2024-01-05T07:44:58.138Z,87427.00
2024-01-05T07:45:58.486Z,87421.00
2024-01-05T07:46:58.133Z,87424.00
2024-01-05T07:47:58.257Z,87418.00
2024-01-05T07:48:58.340Z,87423.00
2024-01-05T07:49:58.234Z,87425.00
2024-01-05T07:50:58.354Z,87428.00
2024-01-05T07:51:58.272Z,87432.00
2024-01-05T07:52:58.258Z,87423.00
2024-01-05T07:53:58.320Z,87430.00
2024-01-05T07:54:58.282Z,87423.00
2024-01-05T07:55:58.320Z,87421.00
2024-01-05T07:56:58.377Z,87413.00
2024-01-05T07:57:58.449Z,87424.00
2024-01-05T07:58:58.496Z,87423.00
2024-01-05T07:59:58.660Z,87428.00
2024-01-05T08:00:58.729Z,87430.00
2024-01-05T08:01:58.721Z,87426.00
2024-01-05T08:02:58.850Z,87427.00
2024-01-05T08:03:58.929Z,87432.00
2024-01-05T08:04:58.887Z,87435.00
2024-01-05T08:05:59.053Z,87431.00
2024-01-05T08:06:59.068Z,87441.00
2024-01-05T08:07:59.061Z,87428.00
2024-01-05T08:08:59.173Z,87428.00
2024-01-05T08:09:59.181Z,87424.00
2024-01-05T08:10:59.277Z,87429.00
2024-01-05T08:11:59.340Z,87423.00
2024-01-05T08:12:59.369Z,87420.00
2024-01-05T08:13:59.501Z,87420.00
2024-01-05T08:14:59.615Z,87419.00
2024-01-05T08:15:59.596Z,87420.00
2024-01-05T08:16:59.641Z,87416.00
2024-01-05T08:17:59.784Z,87421.00
2024-01-05T08:18:59.868Z,87429.00
2024-01-05T08:19:59.914Z,87425.00
2024-01-05T08:20:59.984Z,87429.00
2024-01-05T08:22:00.021Z,87421.00
2024-01-05T08:23:00.129Z,87417.00
2024-01-05T08:24:00.274Z,87417.00
2024-01-05T08:25:00.230Z,87418.00
2024-01-05T08:26:00.385Z,87419.00
2024-01-05T08:27:00.454Z,87420.00
2024-01-05T08:28:00.489Z,87415.00
2024-01-05T08:29:00.571Z,87415.00
2024-01-05T08:30:00.737Z,87426.00
2024-01-05T08:31:00.884Z,87423.00
2024-01-05T08:32:00.902Z,87422.00
2024-01-05T08:33:01.197Z,87420.00
2024-01-05T08:34:01.150Z,87422.00
2024-01-05T08:35:01.057Z,87411.00
2024-01-05T08:36:01.125Z,87403.00
2024-01-05T08:37:01.082Z,87394.00
2024-01-05T08:38:01.094Z,87406.00
2024-01-05T08:39:01.118Z,87408.00
2024-01-05T08:40:01.140Z,87404.00
2024-01-05T08:41:01.605Z,87402.00
2024-01-05T08:42:01.136Z,87399.00
2024-01-05T08:43:01.126Z,87400.00
2024-01-05T08:44:01.250Z,87401.00
2024-01-05T08:45:01.334Z,87398.00
2024-01-05T08:52:06.638Z,87399.00
2024-01-05T08:53:01.337Z,87395.00
2024-01-05T08:54:01.368Z,87396.00
2024-01-05T08:55:01.387Z,87398.00
2024-01-05T08:56:01.719Z,87393.00
2024-01-05T08:57:01.517Z,87399.00
2024-01-05T08:58:01.571Z,87405.00
2024-01-05T08:59:01.595Z,87408.00
2024-01-05T09:00:01.730Z,87404.00
2024-01-05T09:01:01.735Z,87407.00
2024-01-05T09:02:01.594Z,87408.00
2024-01-05T09:03:01.757Z,87406.00
2024-01-05T09:04:01.645Z,87405.00
2024-01-05T09:05:01.610Z,87409.00
2024-01-05T09:06:01.641Z,87405.00
2024-01-05T09:07:01.624Z,87408.00
2024-01-05T09:08:01.636Z,87417.00
2024-01-05T09:09:01.666Z,87417.00
2024-01-05T09:10:01.646Z,87409.00
2024-01-05T09:11:01.620Z,87416.00
2024-01-05T09:12:01.666Z,87413.00
2024-01-05T09:13:01.713Z,87418.00
2024-01-05T09:14:01.626Z,87423.00
2024-01-05T09:15:01.666Z,87430.00
2024-01-05T09:16:01.600Z,87420.00
2024-01-05T09:17:01.954Z,87418.00
2024-01-05T09:18:01.756Z,87417.00
2024-01-05T09:19:01.718Z,87415.00
2024-01-05T09:20:01.624Z,87410.00
2024-01-05T09:21:01.573Z,87422.00
2024-01-05T09:22:01.519Z,87425.00
2024-01-05T09:23:01.509Z,87422.00
2024-01-05T09:24:01.546Z,87431.00
2024-01-05T09:25:01.500Z,87424.00
2024-01-05T09:26:01.430Z,87426.00
2024-01-05T09:27:01.420Z,87428.00
2024-01-05T09:28:01.396Z,87431.00
2024-01-05T09:29:01.361Z,87423.00
2024-01-05T09:30:01.416Z,87425.00
2024-01-05T09:31:01.451Z,87421.00
2024-01-05T09:32:01.324Z,87428.00
2024-01-05T09:33:01.373Z,87423.00
2024-01-05T09:34:01.353Z,87429.00
2024-01-05T09:35:01.260Z,87416.00
2024-01-05T09:36:01.271Z,87417.00
2024-01-05T09:37:01.221Z,87423.00
2024-01-05T09:38:01.203Z,87422.00
2024-01-05T09:39:01.223Z,87424.00
2024-01-05T09:40:01.212Z,87423.00
2024-01-05T09:41:01.166Z,87418.00
2024-01-05T09:42:01.171Z,87410.00
2024-01-05T09:43:01.109Z,87416.00
2024-01-05T09:44:01.080Z,87422.00
2024-01-05T09:45:01.122Z,87420.00
2024-01-05T09:46:01.049Z,87422.00
2024-01-05T09:47:01.025Z,87425.00
2024-01-05T09:48:01.126Z,87421.00
2024-01-05T09:49:01.167Z,87432.00
2024-01-05T09:50:01.351Z,87423.00
2024-01-05T09:51:01.020Z,87428.00
2024-01-05T09:52:00.892Z,87431.00
2024-01-05T09:53:00.884Z,87439.00
2024-01-05T09:54:00.919Z,87443.00
2024-01-05T09:55:00.857Z,87445.00
2024-01-05T09:56:00.833Z,87446.00
2024-01-05T09:57:00.888Z,87445.00
2024-01-05T09:58:00.804Z,87440.00
2024-01-05T09:59:00.808Z,87434.00
2024-01-05T10:00:00.866Z,87436.00
2024-01-05T10:01:00.852Z,87430.00
2024-01-05T10:02:00.756Z,87431.00
2024-01-05T10:03:00.829Z,87432.00
2024-01-05T10:04:01.087Z,87432.00
2024-01-05T10:05:00.747Z,87430.00
2024-01-05T10:06:01.005Z,87428.00
2024-01-05T10:07:00.823Z,87425.00
2024-01-05T10:08:00.802Z,87415.00
2024-01-05T10:09:00.852Z,87416.00
2024-01-05T10:10:00.887Z,87415.00
2024-01-05T10:11:00.920Z,87422.00
2024-01-05T10:12:00.969Z,87415.00
2024-01-05T10:13:00.927Z,87418.00
2024-01-05T10:14:00.900Z,87414.00
2024-01-05T10:15:00.923Z,87423.00
2024-01-05T10:16:00.914Z,87410.00
2024-01-05T10:17:00.878Z,87403.00
2024-01-05T10:18:01.053Z,87406.00
2024-01-05T10:19:00.968Z,87406.00
2024-01-05T10:20:00.944Z,87407.00
2024-01-05T10:21:00.899Z,87403.00
2024-01-05T10:22:00.852Z,87403.00
2024-01-05T10:23:00.854Z,87407.00
2024-01-05T10:24:00.843Z,87396.00
2024-01-05T10:25:00.836Z,87397.00
2024-01-05T10:26:00.834Z,87403.00
2024-01-05T10:27:00.857Z,87396.00
2024-01-05T10:28:00.815Z,87391.00
2024-01-05T10:29:00.812Z,87391.00
2024-01-05T10:30:00.940Z,87392.00
2024-01-05T10:31:00.851Z,87386.00
2024-01-05T10:32:00.776Z,87389.00
2024-01-05T10:33:00.851Z,87386.00
2024-01-05T10:34:00.802Z,87386.00
2024-01-05T10:35:00.874Z,87387.00
2024-01-05T10:36:00.802Z,87385.00
2024-01-05T10:37:00.751Z,87386.00
2024-01-05T10:38:00.725Z,87384.00
2024-01-05T10:39:00.730Z,87390.00
2024-01-05T10:40:00.717Z,87385.00
2024-01-05T10:41:00.704Z,87384.00
2024-01-05T10:42:00.709Z,87378.00
2024-01-05T10:43:00.669Z,87378.00
2024-01-05T10:44:00.652Z,87374.00
2024-01-05T10:45:00.940Z,87380.00
2024-01-05T10:46:00.633Z,87378.00
2024-01-05T10:47:00.622Z,87376.00
2024-01-05T10:48:00.821Z,87377.00
2024-01-05T10:49:00.692Z,87372.00
2024-01-05T10:50:00.958Z,87369.00
2024-01-05T10:51:00.604Z,87372.00
2024-01-05T10:52:00.545Z,87377.00
2024-01-05T10:53:00.531Z,87370.00
2024-01-05T10:54:00.559Z,87369.00
2024-01-05T10:55:00.496Z,87366.00
2024-01-05T10:56:00.492Z,87356.00
2024-01-05T10:57:00.491Z,87351.00
2024-01-05T10:58:00.462Z,87341.00
2024-01-05T10:59:00.484Z,87335.00
2024-01-05T11:00:00.715Z,87339.00
2024-01-05T11:01:00.521Z,87345.00
2024-01-05T11:02:00.430Z,87349.00
2024-01-05T11:03:00.474Z,87351.00
2024-01-05T11:04:00.527Z,87352.00
2024-01-05T11:05:00.432Z,87347.00
2024-01-05T11:06:00.512Z,87338.00
2024-01-05T11:07:00.496Z,87338.00
2024-01-05T11:08:00.369Z,87331.00
2024-01-05T11:09:00.439Z,87328.00
2024-01-05T11:10:00.332Z,87326.00
2024-01-05T11:11:00.351Z,87324.00
2024-01-05T11:12:00.354Z,87332.00
2024-01-05T11:13:00.318Z,87327.00
2024-01-05T11:14:00.336Z,87326.00
2024-01-05T11:15:00.386Z,87325.00
2024-01-05T11:16:00.294Z,87325.00
2024-01-05T11:17:00.295Z,87327.00
2024-01-05T11:18:00.454Z,87334.00
2024-01-05T11:19:00.420Z,87332.00
2024-01-05T11:20:00.465Z,87331.00
2024-01-05T11:21:00.310Z,87332.00
2024-01-05T11:22:00.220Z,87336.00
2024-01-05T11:23:00.233Z,87333.00
2024-01-05T11:24:00.276Z,87337.00
2024-01-05T11:25:00.264Z,87340.00
2024-01-05T11:26:00.226Z,87336.00
2024-01-05T11:27:00.270Z,87340.00
2024-01-05T11:28:00.179Z,87341.00
2024-01-05T11:29:00.159Z,87345.00
2024-01-05T11:30:00.256Z,87339.00
2024-01-05T11:31:00.261Z,87341.00
2024-01-05T11:32:00.141Z,87337.00
2024-01-05T11:33:00.201Z,87336.00
2024-01-05T11:34:00.235Z,87335.00
2024-01-05T11:35:00.102Z,87333.00
2024-01-05T11:36:00.158Z,87337.00
2024-01-05T11:37:00.057Z,87326.00
2024-01-05T11:38:00.055Z,87321.00
2024-01-05T11:39:00.130Z,87313.00
2024-01-05T11:40:00.015Z,87306.00
2024-01-05T11:41:00.030Z,87306.00
2024-01-05T11:42:00.043Z,87298.00
2024-01-05T11:43:00.002Z,87302.00
2024-01-05T11:43:59.991Z,87309.00
2024-01-05T11:45:00.151Z,87317.00
2024-01-05T11:46:00.006Z,87314.00
2024-01-05T11:47:00.003Z,87296.00
2024-01-05T11:48:00.212Z,87298.00
2024-01-05T11:49:00.181Z,87291.00
2024-01-05T11:50:00.027Z,87289.00
2024-01-05T11:51:00.026Z,87288.00